createdAt,value
2018-12-15T00:00:29.199Z,216.73
2018-12-15T00:01:29.214Z,216.78
2018-12-15T00:02:29.303Z,216.71
2018-12-15T00:03:29.361Z,216.73
2018-12-15T00:04:29.451Z,216.76
2018-12-15T00:05:29.608Z,216.69
2018-12-15T00:06:29.576Z,216.65
2018-12-15T00:07:29.674Z,216.79
2018-12-15T00:08:29.754Z,216.80
2018-12-15T00:09:29.812Z,216.70
2018-12-15T00:10:29.908Z,216.68
2018-12-15T00:11:29.963Z,216.78
2018-12-15T00:12:30.070Z,216.76
2018-12-15T00:13:30.147Z,216.76
2018-12-15T00:14:30.247Z,216.78
2018-12-15T00:15:30.273Z,216.79
2018-12-15T00:16:30.329Z,216.73
2018-12-15T00:17:30.437Z,216.76
2018-12-15T00:18:30.504Z,216.73
2018-12-15T00:19:30.569Z,216.75
2018-12-15T00:20:30.667Z,216.76
2018-12-15T00:21:30.746Z,216.73
2018-12-15T00:22:30.924Z,216.76
2018-12-15T00:23:30.869Z,216.76
2018-12-15T00:24:30.934Z,216.76
2018-12-15T00:25:31.019Z,216.67
2018-12-15T00:26:31.075Z,216.76
2018-12-15T00:27:31.398Z,216.76
2018-12-15T00:28:31.255Z,216.76
2018-12-15T00:29:31.318Z,216.73
2018-12-15T00:30:31.506Z,216.76
2018-12-15T00:31:31.441Z,216.76
2018-12-15T00:32:31.529Z,216.71
2018-12-15T00:33:31.622Z,216.71
2018-12-15T00:34:31.687Z,216.71
2018-12-15T00:35:31.782Z,216.78
2018-12-15T00:36:31.812Z,216.73
2018-12-15T00:37:31.903Z,216.73
2018-12-15T00:38:32.010Z,216.73
2018-12-15T00:39:32.015Z,216.75
2018-12-15T00:40:32.124Z,216.71
2018-12-15T00:41:32.169Z,216.69
2018-12-15T00:42:32.278Z,216.76
2018-12-15T00:43:32.362Z,216.70
2018-12-15T00:44:32.410Z,216.73
2018-12-15T00:45:32.504Z,216.69
2018-12-15T00:46:32.575Z,216.76
2018-12-15T00:47:32.657Z,216.71
2018-12-15T00:48:32.728Z,216.76
2018-12-15T00:49:32.795Z,216.69
2018-12-15T00:50:32.915Z,216.69
2018-12-15T00:51:32.965Z,216.71
2018-12-15T00:52:33.057Z,216.78
2018-12-15T00:53:33.103Z,216.70
2018-12-15T00:54:33.199Z,216.71
2018-12-15T00:55:33.420Z,216.73
2018-12-15T00:56:33.339Z,216.75
2018-12-15T00:57:33.430Z,216.80
2018-12-15T00:58:33.487Z,216.76
2018-12-15T00:59:33.582Z,216.75
2018-12-15T01:00:33.680Z,216.78
2018-12-15T01:01:33.723Z,216.73
2018-12-15T01:02:33.817Z,216.80
2018-12-15T01:03:33.956Z,216.71
2018-12-15T01:04:33.960Z,216.73
2018-12-15T01:05:34.046Z,216.73
2018-12-15T01:06:34.095Z,216.73
2018-12-15T01:07:35.201Z,216.73
2018-12-15T01:08:34.281Z,216.76
2018-12-15T01:09:34.364Z,216.82
2018-12-15T01:10:34.421Z,216.80
2018-12-15T01:11:34.534Z,216.73
2018-12-15T01:12:34.558Z,216.76
2018-12-15T01:13:34.636Z,216.81
2018-12-15T01:14:34.719Z,216.75
2018-12-15T01:15:34.783Z,216.78
2018-12-15T01:16:34.839Z,216.80
2018-12-15T01:17:34.945Z,216.81
2018-12-15T01:18:35.028Z,216.84
2018-12-15T01:19:35.144Z,216.81
2018-12-15T01:20:35.134Z,216.85
2018-12-15T01:21:35.209Z,216.80
2018-12-15T01:22:35.278Z,216.79
2018-12-15T01:23:35.365Z,216.85
2018-12-15T01:24:35.414Z,216.78
2018-12-15T01:25:35.515Z,216.79
2018-12-15T01:26:35.568Z,216.84
2018-12-15T01:27:35.723Z,216.85
2018-12-15T01:28:35.744Z,216.85
2018-12-15T01:29:35.814Z,216.79
2018-12-15T01:30:35.903Z,216.84
2018-12-15T01:31:35.938Z,216.81
2018-12-15T01:32:36.024Z,216.85
2018-12-15T01:33:36.084Z,216.80
2018-12-15T01:34:36.175Z,216.80
2018-12-15T01:35:36.283Z,216.85
2018-12-15T01:36:36.428Z,216.82
2018-12-15T01:37:36.406Z,216.85
2018-12-15T01:38:36.463Z,216.82
2018-12-15T01:39:36.552Z,216.85
2018-12-15T01:40:36.653Z,216.85
2018-12-15T01:41:36.906Z,216.84
2018-12-15T01:42:36.772Z,216.81
2018-12-15T01:43:36.842Z,216.85
2018-12-15T01:44:37.023Z,216.84
2018-12-15T01:45:37.007Z,216.85
2018-12-15T01:46:37.064Z,216.89
2018-12-15T01:47:37.155Z,216.89
2018-12-15T01:48:37.227Z,216.85
2018-12-15T01:49:37.300Z,216.89
2018-12-15T01:50:37.417Z,216.82
2018-12-15T01:51:37.447Z,216.79
2018-12-15T01:52:37.635Z,216.88
2018-12-15T01:53:37.592Z,216.79
2018-12-15T01:54:37.685Z,216.89
2018-12-15T01:55:37.754Z,216.80
2018-12-15T01:56:37.845Z,216.88
2018-12-15T01:57:37.910Z,216.85
2018-12-15T01:58:37.967Z,216.82
2018-12-15T01:59:38.041Z,216.85
2018-12-15T02:00:38.181Z,216.80
2018-12-15T02:01:38.189Z,216.84
2018-12-15T02:02:38.280Z,216.87
2018-12-15T02:03:38.344Z,216.87
2018-12-15T02:04:38.433Z,216.88
2018-12-15T02:05:38.509Z,216.93
2018-12-15T02:06:38.576Z,216.87
2018-12-15T02:07:38.664Z,216.82
2018-12-15T02:08:38.726Z,216.89
2018-12-15T02:09:38.882Z,216.84
2018-12-15T02:10:38.881Z,216.85
2018-12-15T02:11:38.959Z,216.80
2018-12-15T02:12:39.013Z,216.89
2018-12-15T02:13:39.095Z,216.89
2018-12-15T02:14:39.174Z,216.85
2018-12-15T02:15:39.243Z,216.93
2018-12-15T02:16:39.301Z,216.80
2018-12-15T02:17:39.517Z,216.82
2018-12-15T02:18:39.464Z,216.88
2018-12-15T02:19:39.521Z,216.89
2018-12-15T02:20:39.606Z,216.90
2018-12-15T02:21:39.673Z,216.84
2018-12-15T02:22:39.766Z,216.85
2018-12-15T02:23:39.811Z,216.85
2018-12-15T02:24:39.886Z,216.80
2018-12-15T02:25:40.045Z,216.93
2018-12-15T02:26:40.026Z,216.85
2018-12-15T02:27:40.126Z,216.90
2018-12-15T02:28:40.167Z,216.90
2018-12-15T02:29:40.242Z,216.93
2018-12-15T02:30:40.326Z,216.84
2018-12-15T02:31:40.418Z,216.93
2018-12-15T02:32:40.499Z,216.87
2018-12-15T02:33:40.631Z,216.97
2018-12-15T02:34:40.609Z,216.94
2018-12-15T02:35:40.723Z,216.90
2018-12-15T02:36:40.796Z,216.87
2018-12-15T02:37:40.852Z,216.94
2018-12-15T02:38:40.903Z,216.88
2018-12-15T02:39:41.014Z,216.87
2018-12-15T02:40:41.066Z,216.89
2018-12-15T02:41:47.015Z,216.84
2018-12-15T02:42:42.231Z,216.93
2018-12-15T02:43:41.275Z,216.85
2018-12-15T02:44:41.364Z,216.84
2018-12-15T02:45:41.453Z,216.82
2018-12-15T02:46:41.516Z,216.90
2018-12-15T02:47:42.085Z,216.85
2018-12-15T02:48:41.656Z,216.82
2018-12-15T02:49:41.759Z,216.85
2018-12-15T02:50:41.952Z,216.87
2018-12-15T02:51:41.884Z,216.85
2018-12-15T02:52:41.980Z,216.84
2018-12-15T02:53:42.027Z,216.84
2018-12-15T02:54:42.101Z,216.82
2018-12-15T02:55:42.422Z,216.85
2018-12-15T02:56:42.267Z,216.84
2018-12-15T02:57:42.344Z,216.81
2018-12-15T02:58:42.524Z,216.82
2018-12-15T02:59:42.466Z,216.85
2018-12-15T03:00:42.563Z,216.85
2018-12-15T03:01:42.630Z,216.82
2018-12-15T03:02:42.716Z,216.85
2018-12-15T03:03:42.759Z,216.87
2018-12-15T03:04:42.839Z,216.82
2018-12-15T03:05:42.928Z,216.89
2018-12-15T03:06:43.045Z,216.82
2018-12-15T03:07:43.090Z,216.89
2018-12-15T03:08:43.120Z,216.85
2018-12-15T03:09:43.193Z,216.85
2018-12-15T03:10:43.329Z,216.82
2018-12-15T03:11:43.353Z,216.80
2018-12-15T03:12:43.448Z,216.87
2018-12-15T03:13:43.510Z,216.90
2018-12-15T03:14:43.654Z,216.87
2018-12-15T03:15:43.693Z,216.85
2018-12-15T03:16:43.727Z,216.87
2018-12-15T03:17:48.837Z,216.85
2018-12-15T03:18:44.901Z,216.85
2018-12-15T03:19:43.960Z,216.80
2018-12-15T03:20:44.063Z,216.80
2018-12-15T03:21:44.106Z,216.90
2018-12-15T03:22:44.279Z,216.85
2018-12-15T03:23:44.275Z,216.85
2018-12-15T03:24:44.325Z,216.85
2018-12-15T03:25:44.416Z,216.84
2018-12-15T03:26:44.474Z,216.85
2018-12-15T03:27:44.603Z,216.87
2018-12-15T03:28:44.638Z,216.82
2018-12-15T03:29:44.708Z,216.80
2018-12-15T03:30:44.854Z,216.80
2018-12-15T03:31:45.000Z,216.78
2018-12-15T03:32:44.965Z,216.80
2018-12-15T03:33:45.019Z,216.75
2018-12-15T03:34:45.093Z,216.76
2018-12-15T03:35:45.204Z,216.80
2018-12-15T03:36:45.237Z,216.79
2018-12-15T03:37:45.331Z,216.79
2018-12-15T03:38:45.397Z,216.73
2018-12-15T03:39:45.576Z,216.76
2018-12-15T03:40:45.576Z,216.76
2018-12-15T03:41:45.607Z,216.76
2018-12-15T03:42:45.699Z,216.78
2018-12-15T03:43:45.762Z,216.78
2018-12-15T03:44:45.841Z,216.79
2018-12-15T03:45:45.922Z,216.84
2018-12-15T03:46:45.977Z,216.81
2018-12-15T03:47:46.102Z,216.85
2018-12-15T03:48:46.130Z,216.85
2018-12-15T03:49:46.193Z,216.85
2018-12-15T03:50:46.289Z,216.81
2018-12-15T03:51:46.337Z,216.78
2018-12-15T03:52:46.420Z,216.81
2018-12-15T03:53:46.489Z,216.79
2018-12-15T03:54:46.551Z,216.81
2018-12-15T03:55:46.734Z,216.79
2018-12-15T03:56:46.693Z,216.79
2018-12-15T03:57:46.817Z,216.75
2018-12-15T03:58:46.872Z,216.78
2018-12-15T03:59:46.927Z,216.78
2018-12-15T04:00:47.038Z,216.76
2018-12-15T04:01:47.089Z,216.78
2018-12-15T04:02:47.165Z,216.73
2018-12-15T04:03:47.245Z,216.73
2018-12-15T04:04:47.408Z,216.76
2018-12-15T04:05:47.409Z,216.79
2018-12-15T04:06:47.459Z,216.76
2018-12-15T04:07:47.540Z,216.79
2018-12-15T04:08:47.591Z,216.79
2018-12-15T04:09:47.896Z,216.79
2018-12-15T04:10:47.783Z,216.76
2018-12-15T04:11:47.832Z,216.78
2018-12-15T04:12:48.044Z,216.73
2018-12-15T04:13:47.986Z,216.76
2018-12-15T04:14:48.048Z,216.73
2018-12-15T04:15:48.167Z,216.73
2018-12-15T04:16:48.213Z,216.73
2018-12-15T04:17:48.434Z,216.76
2018-12-15T04:18:48.399Z,216.78
2018-12-15T04:19:48.461Z,216.76
2018-12-15T04:20:48.625Z,216.80
2018-12-15T04:21:48.595Z,216.75
2018-12-15T04:22:48.689Z,216.75
2018-12-15T04:23:48.765Z,216.78
2018-12-15T04:24:48.819Z,216.75
2018-12-15T04:25:48.939Z,216.78
2018-12-15T04:26:48.970Z,216.73
2018-12-15T04:27:49.078Z,216.71
2018-12-15T04:28:49.152Z,216.76
2018-12-15T04:29:49.189Z,216.73
2018-12-15T04:30:49.302Z,216.78
2018-12-15T04:31:49.333Z,216.73
2018-12-15T04:32:49.424Z,216.78
2018-12-15T04:33:49.477Z,216.78
2018-12-15T04:34:49.565Z,216.75
2018-12-15T04:35:49.695Z,216.80
2018-12-15T04:36:49.773Z,216.78
2018-12-15T04:37:49.847Z,216.84
2018-12-15T04:38:49.860Z,216.85
2018-12-15T04:39:49.933Z,216.88
2018-12-15T04:40:50.068Z,216.80
2018-12-15T04:41:50.106Z,216.80
2018-12-15T04:42:50.177Z,216.81
2018-12-15T04:43:50.234Z,216.80
2018-12-15T04:44:50.343Z,216.80
2018-12-15T04:45:50.551Z,216.76
2018-12-15T04:46:50.498Z,216.79
2018-12-15T04:47:50.564Z,216.85
2018-12-15T04:48:50.622Z,216.73
2018-12-15T04:49:50.718Z,216.76
2018-12-15T04:50:50.811Z,216.81
2018-12-15T04:51:50.877Z,216.81
2018-12-15T04:52:50.949Z,216.82
2018-12-15T04:53:51.138Z,216.85
2018-12-15T04:54:51.123Z,216.76
2018-12-15T04:55:51.194Z,216.85
2018-12-15T04:56:51.275Z,216.87
2018-12-15T04:57:51.348Z,216.80
2018-12-15T04:58:51.421Z,216.88
2018-12-15T04:59:51.500Z,216.88
2018-12-15T05:00:51.585Z,216.85
2018-12-15T05:01:51.730Z,216.87
2018-12-15T05:02:51.735Z,216.85
2018-12-15T05:03:51.779Z,216.78
2018-12-15T05:04:51.881Z,216.81
2018-12-15T05:05:51.948Z,216.84
2018-12-15T05:06:52.044Z,216.88
2018-12-15T05:07:52.099Z,216.84
2018-12-15T05:08:52.151Z,216.85
2018-12-15T05:09:52.350Z,216.84
2018-12-15T05:10:52.310Z,216.85
2018-12-15T05:11:52.380Z,216.82
2018-12-15T05:12:52.449Z,216.85
2018-12-15T05:13:52.513Z,216.81
2018-12-15T05:14:52.608Z,216.87
2018-12-15T05:15:52.678Z,216.84
2018-12-15T05:16:52.763Z,216.81
2018-12-15T05:17:52.907Z,216.90
2018-12-15T05:18:53.160Z,217.00
2018-12-15T05:19:52.953Z,216.98
2018-12-15T05:20:53.027Z,216.88
2018-12-15T05:21:53.089Z,216.88
2018-12-15T05:22:53.401Z,216.93
2018-12-15T05:23:53.244Z,216.89
2018-12-15T05:24:53.318Z,216.93
2018-12-15T05:25:53.415Z,216.97
2018-12-15T05:26:53.566Z,216.90
2018-12-15T05:27:53.549Z,216.87
2018-12-15T05:28:53.623Z,216.85
2018-12-15T05:29:53.671Z,216.87
2018-12-15T05:30:53.762Z,216.93
2018-12-15T05:31:53.847Z,216.90
2018-12-15T05:32:53.934Z,216.89
2018-12-15T05:33:53.969Z,216.96
2018-12-15T05:34:54.126Z,216.93
2018-12-15T05:35:54.124Z,216.97
2018-12-15T05:36:54.209Z,216.87
2018-12-15T05:37:54.285Z,216.97
2018-12-15T05:38:54.328Z,216.93
2018-12-15T05:39:54.414Z,216.98
2018-12-15T05:40:54.503Z,216.88
2018-12-15T05:41:54.601Z,217.00
2018-12-15T05:42:54.718Z,216.98
2018-12-15T05:43:54.704Z,216.93
2018-12-15T05:44:54.784Z,217.04
2018-12-15T05:45:54.892Z,217.06
2018-12-15T05:46:54.954Z,216.94
2018-12-15T05:47:55.020Z,216.94
2018-12-15T05:48:55.076Z,216.97
2018-12-15T05:49:55.158Z,216.93
2018-12-15T05:50:55.310Z,217.02
2018-12-15T05:51:55.326Z,217.06
2018-12-15T05:52:55.404Z,217.06
2018-12-15T05:53:55.480Z,216.96
2018-12-15T05:54:55.532Z,216.97
2018-12-15T05:55:55.625Z,217.00
2018-12-15T05:56:55.695Z,217.02
2018-12-15T05:57:55.786Z,217.00
2018-12-15T05:58:55.839Z,217.05
2018-12-15T05:59:56.003Z,217.00
2018-12-15T06:00:55.984Z,217.00
2018-12-15T06:01:56.051Z,217.05
2018-12-15T06:02:56.150Z,216.96
2018-12-15T06:03:56.185Z,216.96
2018-12-15T06:04:56.260Z,217.04
2018-12-15T06:05:56.352Z,216.93
2018-12-15T06:06:56.456Z,216.96
2018-12-15T06:07:56.621Z,216.98
2018-12-15T06:08:56.556Z,216.89
2018-12-15T06:09:56.643Z,217.01
2018-12-15T06:10:56.726Z,217.01
2018-12-15T06:11:56.834Z,216.98
2018-12-15T06:12:56.872Z,217.02
2018-12-15T06:13:56.926Z,216.98
2018-12-15T06:14:56.997Z,217.08
2018-12-15T06:15:57.175Z,217.04
2018-12-15T06:16:57.176Z,217.01
2018-12-15T06:17:57.232Z,216.97
2018-12-15T06:18:57.297Z,216.99
2018-12-15T06:19:57.364Z,216.99
2018-12-15T06:20:57.475Z,216.88
2018-12-15T06:21:57.561Z,216.87
2018-12-15T06:22:57.621Z,217.00
2018-12-15T06:23:57.736Z,216.98
2018-12-15T06:24:57.749Z,216.90
2018-12-15T06:25:57.825Z,216.89
2018-12-15T06:26:57.919Z,216.90
2018-12-15T06:27:57.972Z,216.89
2018-12-15T06:28:58.050Z,216.94
2018-12-15T06:29:58.107Z,216.93
2018-12-15T06:30:58.201Z,216.89
2018-12-15T06:31:58.304Z,216.96
2018-12-15T06:32:58.375Z,216.99
2018-12-15T06:33:58.420Z,216.97
2018-12-15T06:34:58.473Z,216.99
2018-12-15T06:35:58.564Z,217.02
2018-12-15T06:36:58.632Z,216.94
2018-12-15T06:38:04.369Z,216.93
2018-12-15T06:38:58.769Z,216.93
2018-12-15T06:39:59.347Z,217.01
2018-12-15T06:40:59.472Z,216.96
2018-12-15T06:41:59.018Z,216.99
2018-12-15T06:42:59.103Z,216.94
2018-12-15T06:43:59.202Z,217.05
2018-12-15T06:44:59.228Z,216.93
2018-12-15T06:45:59.341Z,217.00
2018-12-15T06:46:59.383Z,217.02
2018-12-15T06:47:59.489Z,217.04
2018-12-15T06:48:59.646Z,217.05
2018-12-15T06:49:59.611Z,217.09
2018-12-15T06:51:00.102Z,217.00
2018-12-15T06:51:59.788Z,217.01
2018-12-15T06:52:59.918Z,217.01
2018-12-15T06:53:59.925Z,217.08
2018-12-15T06:55:00.015Z,216.99
2018-12-15T06:56:00.066Z,217.04
2018-12-15T06:57:00.183Z,217.04
2018-12-15T06:58:00.861Z,217.04
2018-12-15T06:59:00.277Z,217.02
2018-12-15T07:00:00.362Z,217.05
2018-12-15T07:01:00.433Z,217.04
2018-12-15T07:02:00.488Z,217.05
2018-12-15T07:03:00.630Z,217.04
2018-12-15T07:04:00.643Z,217.06
2018-12-15T07:05:00.761Z,217.04
2018-12-15T07:06:01.349Z,217.04
2018-12-15T07:07:00.850Z,217.00
2018-12-15T07:08:00.969Z,217.00
2018-12-15T07:09:01.013Z,217.01
2018-12-15T07:10:01.097Z,217.00
2018-12-15T07:11:01.160Z,216.96
2018-12-15T07:12:01.272Z,216.94
2018-12-15T07:13:01.402Z,216.89
2018-12-15T07:14:01.444Z,216.89
2018-12-15T07:15:01.472Z,217.00
2018-12-15T07:16:01.533Z,216.94
2018-12-15T07:17:01.627Z,216.97
2018-12-15T07:18:01.734Z,216.93
2018-12-15T07:19:02.359Z,216.87
2018-12-15T07:20:01.845Z,216.93
2018-12-15T07:21:01.919Z,216.93
2018-12-15T07:22:02.086Z,216.93
2018-12-15T07:23:02.858Z,216.85
2018-12-15T07:24:02.196Z,216.99
2018-12-15T07:25:02.212Z,216.85
2018-12-15T07:26:02.314Z,216.99
2018-12-15T07:27:02.342Z,217.01
2018-12-15T07:28:02.464Z,216.93
2018-12-15T07:29:02.497Z,216.89
2018-12-15T07:30:02.671Z,216.96
2018-12-15T07:31:02.632Z,216.89
2018-12-15T07:32:02.709Z,216.98
2018-12-15T07:33:02.829Z,217.00
2018-12-15T07:34:02.868Z,216.88
2018-12-15T07:35:02.947Z,216.88
2018-12-15T07:36:03.004Z,216.90
2018-12-15T07:37:03.075Z,216.93
2018-12-15T07:38:03.214Z,216.89
2018-12-15T07:39:03.222Z,216.89
2018-12-15T07:40:03.334Z,216.93
2018-12-15T07:41:03.369Z,216.93
2018-12-15T07:42:03.451Z,216.96
2018-12-15T07:43:03.580Z,216.89
2018-12-15T07:44:03.619Z,216.98
2018-12-15T07:45:03.697Z,216.93
2018-12-15T07:46:03.809Z,216.93
2018-12-15T07:47:03.826Z,216.89
2018-12-15T07:48:03.940Z,216.93
2018-12-15T07:49:03.973Z,216.85
2018-12-15T07:50:04.073Z,216.93
2018-12-15T07:51:04.140Z,216.90
2018-12-15T07:52:04.196Z,216.93
2018-12-15T07:53:04.533Z,216.90
2018-12-15T07:54:04.377Z,216.85
2018-12-15T07:55:04.521Z,216.93
2018-12-15T07:56:04.508Z,216.81
2018-12-15T07:57:04.577Z,216.81
2018-12-15T07:58:04.668Z,216.89
2018-12-15T07:59:04.725Z,216.87
2018-12-15T08:00:04.863Z,216.90
2018-12-15T08:01:04.886Z,216.94
2018-12-15T08:02:04.963Z,216.87
2018-12-15T08:03:05.186Z,216.89
2018-12-15T08:04:05.104Z,216.81
2018-12-15T08:05:05.224Z,216.80
2018-12-15T08:06:05.263Z,216.87
2018-12-15T08:07:05.345Z,216.82
2018-12-15T08:08:05.436Z,216.82
2018-12-15T08:09:05.512Z,216.85
2018-12-15T08:10:05.607Z,216.88
2018-12-15T08:11:05.708Z,216.89
2018-12-15T08:12:05.711Z,216.82
2018-12-15T08:13:05.812Z,216.89
2018-12-15T08:14:05.868Z,216.89
2018-12-15T08:15:05.963Z,216.89
2018-12-15T08:16:06.020Z,216.88
2018-12-15T08:17:06.105Z,216.85
2018-12-15T08:18:06.181Z,216.81
2018-12-15T08:19:06.270Z,216.82
2018-12-15T08:20:06.344Z,216.78
2018-12-15T08:21:06.374Z,216.76
2018-12-15T08:22:06.462Z,216.75
2018-12-15T08:23:06.558Z,216.75
2018-12-15T08:24:06.612Z,216.70
2018-12-15T08:25:06.720Z,216.65
2018-12-15T08:26:06.762Z,216.67
2018-12-15T08:27:06.898Z,216.62
2018-12-15T08:28:06.997Z,216.70
2018-12-15T08:29:06.990Z,216.58
2018-12-15T08:30:07.123Z,216.56
2018-12-15T08:31:07.137Z,216.49
2018-12-15T08:32:07.211Z,216.55
2018-12-15T08:33:07.320Z,216.53
2018-12-15T08:34:07.365Z,216.53
2018-12-15T08:35:07.471Z,216.55
2018-12-15T08:36:07.635Z,216.56
2018-12-15T08:37:07.584Z,216.55
2018-12-15T08:38:07.722Z,216.48
2018-12-15T08:39:07.746Z,216.51
2018-12-15T08:40:07.818Z,216.46
2018-12-15T08:41:07.880Z,216.45
2018-12-15T08:42:07.943Z,216.45
2018-12-15T08:43:08.079Z,216.44
2018-12-15T08:44:08.181Z,216.44
2018-12-15T08:45:08.189Z,216.41
2018-12-15T08:46:08.242Z,216.39
2018-12-15T08:47:08.329Z,216.33
2018-12-15T08:48:08.461Z,216.36
2018-12-15T08:49:08.472Z,216.37
2018-12-15T08:50:08.566Z,216.30
2018-12-15T08:51:09.355Z,216.37
2018-12-15T08:52:08.757Z,216.37
2018-12-15T08:53:08.795Z,216.41
2018-12-15T08:54:08.852Z,216.36
2018-12-15T08:55:08.936Z,216.33
2018-12-15T08:56:09.008Z,216.30
2018-12-15T08:57:09.068Z,216.33
2018-12-15T08:58:09.159Z,216.28
2018-12-15T08:59:09.221Z,216.22
2018-12-15T09:00:09.371Z,216.24
2018-12-15T09:01:09.382Z,216.22
2018-12-15T09:02:09.452Z,216.19
2018-12-15T09:03:09.550Z,216.13
2018-12-15T09:04:09.588Z,216.24
2018-12-15T09:05:09.701Z,216.25
2018-12-15T09:06:09.761Z,216.13
2018-12-15T09:07:10.065Z,216.22
2018-12-15T09:08:09.981Z,216.22
2018-12-15T09:09:10.029Z,216.10
2018-12-15T09:10:10.085Z,216.19
2018-12-15T09:11:10.142Z,216.12
2018-12-15T09:12:10.214Z,216.12
2018-12-15T09:13:10.340Z,216.16
2018-12-15T09:14:10.362Z,216.12
2018-12-15T09:15:10.455Z,216.04
2018-12-15T09:16:10.518Z,216.10
2018-12-15T09:17:10.696Z,216.13
2018-12-15T09:18:10.716Z,216.04
2018-12-15T09:19:11.422Z,216.12
2018-12-15T09:20:10.838Z,216.14
2018-12-15T09:21:10.894Z,216.13
2018-12-15T09:22:11.518Z,216.10
2018-12-15T09:23:11.089Z,216.10
2018-12-15T09:24:11.132Z,216.10
2018-12-15T09:25:11.313Z,216.07
2018-12-15T09:26:11.259Z,216.10
2018-12-15T09:27:11.354Z,216.10
2018-12-15T09:28:11.462Z,216.05
2018-12-15T09:29:11.485Z,216.07
2018-12-15T09:30:11.581Z,216.10
2018-12-15T09:31:11.644Z,216.10
2018-12-15T09:32:11.702Z,216.10
2018-12-15T09:33:11.871Z,216.16
2018-12-15T09:34:11.826Z,216.07
2018-12-15T09:35:11.943Z,216.01
2018-12-15T09:36:11.994Z,215.99
2018-12-15T09:37:12.053Z,216.06
2018-12-15T09:38:12.184Z,216.04
2018-12-15T09:39:12.210Z,216.12
2018-12-15T09:40:12.286Z,216.01
2018-12-15T09:41:12.396Z,216.04
2018-12-15T09:42:12.413Z,216.08
2018-12-15T09:43:12.539Z,216.08
2018-12-15T09:44:12.560Z,216.04
2018-12-15T09:45:12.659Z,216.05
2018-12-15T09:46:12.715Z,216.07
2018-12-15T09:47:12.789Z,216.15
2018-12-15T09:48:12.896Z,216.07
2018-12-15T09:49:17.684Z,216.15
2018-12-15T09:50:14.878Z,216.10
2018-12-15T09:51:13.082Z,216.15
2018-12-15T09:52:13.154Z,216.13
2018-12-15T09:53:13.858Z,216.13
2018-12-15T09:54:13.858Z,216.15
2018-12-15T09:55:13.391Z,216.15
2018-12-15T09:56:13.467Z,216.13
2018-12-15T09:57:13.520Z,216.10
2018-12-15T09:58:13.764Z,216.10
2018-12-15T09:59:13.667Z,216.10
2018-12-15T10:00:13.756Z,216.16
2018-12-15T10:01:14.370Z,215.99
2018-12-15T10:02:13.891Z,216.10
2018-12-15T10:03:14.377Z,216.04
2018-12-15T10:04:14.051Z,215.99
2018-12-15T10:05:14.142Z,215.96
2018-12-15T10:06:14.255Z,215.96
2018-12-15T10:07:14.242Z,216.01
2018-12-15T10:08:14.371Z,215.99
2018-12-15T10:09:14.393Z,216.04
2018-12-15T10:10:14.502Z,216.05
2018-12-15T10:11:14.560Z,216.05
2018-12-15T10:12:14.629Z,216.13
2018-12-15T10:13:14.926Z,216.10
2018-12-15T10:14:14.834Z,216.12
2018-12-15T10:15:14.866Z,216.03
2018-12-15T10:16:14.934Z,216.10
2018-12-15T10:17:15.002Z,215.99
2018-12-15T10:18:15.116Z,216.04
2018-12-15T10:19:15.160Z,216.04
2018-12-15T10:20:15.240Z,215.94
2018-12-15T10:21:15.306Z,215.98
2018-12-15T10:22:15.681Z,216.04
2018-12-15T10:23:15.525Z,215.98
2018-12-15T10:24:15.535Z,215.98
2018-12-15T10:25:15.618Z,215.94
2018-12-15T10:26:15.705Z,215.94
2018-12-15T10:27:15.758Z,215.95
2018-12-15T10:28:15.849Z,216.03
2018-12-15T10:29:15.928Z,215.94
2018-12-15T10:30:16.009Z,215.96
2018-12-15T10:31:16.168Z,216.04
2018-12-15T10:32:16.144Z,215.98
2018-12-15T10:33:16.228Z,215.94
2018-12-15T10:34:16.299Z,215.95
2018-12-15T10:35:16.368Z,215.90
2018-12-15T10:36:16.433Z,215.85
2018-12-15T10:37:16.506Z,215.85
2018-12-15T10:38:16.602Z,215.84
2018-12-15T10:39:16.796Z,215.91
2018-12-15T10:40:16.741Z,215.90
2018-12-15T10:41:16.816Z,215.85
2018-12-15T10:42:16.890Z,215.88
2018-12-15T10:43:16.980Z,215.95
2018-12-15T10:44:17.073Z,215.99
2018-12-15T10:45:17.120Z,266.15
2018-12-15T10:46:17.191Z,265.15
2018-12-15T10:47:17.298Z,267.09
2018-12-15T10:48:17.355Z,267.42
2018-12-15T10:49:17.439Z,265.50
2018-12-15T10:50:17.486Z,266.30
2018-12-15T10:51:17.545Z,266.01
2018-12-15T10:52:17.618Z,265.80
2018-12-15T10:53:17.725Z,267.01
2018-12-15T10:54:17.848Z,265.80
2018-12-15T10:55:17.918Z,263.89
2018-12-15T10:56:17.902Z,266.67
2018-12-15T10:57:17.998Z,266.57
2018-12-15T10:58:18.084Z,266.44
2018-12-15T10:59:18.157Z,265.79
2018-12-15T11:00:18.237Z,266.52
2018-12-15T11:01:18.307Z,265.41
2018-12-15T11:02:18.363Z,264.51
2018-12-15T11:03:18.492Z,266.55
2018-12-15T11:04:18.562Z,267.26
2018-12-15T11:05:18.612Z,266.26
2018-12-15T11:06:18.667Z,267.59
2018-12-15T11:07:18.725Z,266.76
2018-12-15T11:08:18.833Z,265.46
2018-12-15T11:09:18.898Z,264.94
2018-12-15T11:10:18.980Z,263.36
2018-12-15T11:11:19.029Z,263.23
2018-12-15T11:12:19.273Z,264.77
2018-12-15T11:13:19.185Z,265.07
2018-12-15T11:14:19.252Z,266.48
2018-12-15T11:15:19.337Z,266.67
2018-12-15T11:16:19.375Z,265.58
2018-12-15T11:17:19.448Z,265.47
2018-12-15T11:18:19.546Z,267.23
2018-12-15T11:19:19.629Z,264.78
2018-12-15T11:20:19.790Z,265.05
2018-12-15T11:21:19.734Z,266.86
2018-12-15T11:22:19.814Z,266.75
2018-12-15T11:23:19.895Z,265.09
2018-12-15T11:24:19.975Z,267.84
2018-12-15T11:25:20.094Z,264.49
2018-12-15T11:26:20.124Z,266.76
2018-12-15T11:27:20.203Z,265.96
2018-12-15T11:28:20.352Z,266.65
2018-12-15T11:29:20.370Z,265.76
2018-12-15T11:30:20.443Z,264.55
2018-12-15T11:31:20.496Z,265.24
2018-12-15T11:32:20.602Z,266.00
2018-12-15T11:33:20.671Z,266.90
2018-12-15T11:34:20.740Z,266.36
2018-12-15T11:35:21.059Z,264.91
2018-12-15T11:36:20.905Z,265.42
2018-12-15T11:37:20.949Z,265.17
2018-12-15T11:38:21.041Z,267.23
2018-12-15T11:39:21.131Z,267.71
2018-12-15T11:40:21.209Z,266.97
2018-12-15T11:41:21.245Z,265.91
2018-12-15T11:42:21.317Z,267.16
2018-12-15T11:43:21.412Z,264.73
2018-12-15T11:44:21.509Z,265.11
2018-12-15T11:45:21.627Z,265.20
2018-12-15T11:46:21.612Z,267.87
2018-12-15T11:47:22.367Z,264.13
2018-12-15T11:48:21.783Z,266.79
2018-12-15T11:49:21.875Z,266.47
2018-12-15T11:50:21.924Z,265.92
2018-12-15T11:51:21.981Z,265.00
2018-12-15T11:52:22.050Z,263.89
2018-12-15T11:53:22.276Z,264.87
2018-12-15T11:54:22.236Z,266.31
2018-12-15T11:55:22.301Z,265.67
2018-12-15T11:56:22.376Z,266.63
2018-12-15T11:57:22.434Z,215.87
2018-12-15T11:58:22.549Z,215.82
2018-12-15T11:59:22.604Z,215.79
2018-12-15T12:00:22.672Z,215.77
2018-12-15T12:01:22.811Z,215.79
2018-12-15T12:02:22.802Z,215.77
2018-12-15T12:03:23.366Z,215.76
2018-12-15T12:04:22.965Z,215.74
2018-12-15T12:05:23.047Z,215.76
2018-12-15T12:06:23.118Z,215.68
2018-12-15T12:07:23.171Z,215.71
2018-12-15T12:08:23.271Z,215.76
2018-12-15T12:09:23.383Z,215.74
2018-12-15T12:10:23.401Z,215.61
2018-12-15T12:11:23.500Z,215.73
2018-12-15T12:12:23.554Z,215.65
2018-12-15T12:13:23.632Z,215.71
2018-12-15T12:14:23.757Z,215.67
2018-12-15T12:15:23.823Z,215.63
2018-12-15T12:16:23.849Z,215.74
2018-12-15T12:17:23.956Z,215.68
2018-12-15T12:18:24.111Z,215.65
2018-12-15T12:19:24.086Z,215.62
2018-12-15T12:20:24.185Z,215.67
2018-12-15T12:21:24.248Z,215.65
2018-12-15T12:22:24.314Z,215.69
2018-12-15T12:23:24.406Z,215.69
2018-12-15T12:24:24.465Z,215.68
2018-12-15T12:25:24.564Z,215.60
2018-12-15T12:26:24.763Z,215.60
2018-12-15T12:27:24.687Z,215.65
2018-12-15T12:28:24.776Z,215.65
2018-12-15T12:29:24.837Z,215.59